Time;durP1;ratioP1;P1;durP2;ratioP2;P2;SDS_P1;SDS_P2;PMS_P1;PMS_P2;Temp;Humidity;BMP_temperature;BMP_pressure;BME280_temperature;BME280_humidity;BME280_pressure;Samples;Min_cycle;Max_cycle;Signal;HPM_P1;HPM_P2
2022/06/22 00:01:19;;;;;;;4.30;3.90;;;21.80;68.70;;;;;;5021352;28;20812;-69
2022/06/22 00:03:50;;;;;;;3.27;3.07;;;21.80;68.40;;;;;;5053518;28;20467;-69
2022/06/22 00:06:28;;;;;;;3.90;3.60;;;21.90;68.30;;;;;;5044725;28;20497;-69
2022/06/22 00:08:54;;;;;;;3.20;3.00;;;21.90;68.00;;;;;;5049668;28;20476;-69
2022/06/22 00:11:21;;;;;;;3.53;3.33;;;21.90;68.10;;;;;;5043732;28;20864;-70
2022/06/22 00:13:50;;;;;;;5.53;3.70;;;21.80;68.00;;;;;;5040441;28;20912;-69
2022/06/22 00:16:27;;;;;;;3.60;3.20;;;21.80;68.40;;;;;;5039968;28;20517;-69
2022/06/22 00:18:54;;;;;;;3.07;2.93;;;21.80;68.30;;;;;;5037874;28;20457;-70
2022/06/22 00:21:39;;;;;;;3.90;3.60;;;21.60;68.50;;;;;;5047645;28;20468;-69
2022/06/22 00:24:25;;;;;;;3.20;2.90;;;21.40;69.00;;;;;;5041042;28;20480;-70
2022/06/22 00:26:58;;;;;;;4.60;3.20;;;21.30;69.10;;;;;;5036614;28;20472;-70
2022/06/22 00:29:34;;;;;;;4.53;4.20;;;21.40;69.00;;;;;;5046523;28;20521;-69
2022/06/22 00:32:01;;;;;;;3.57;3.23;;;21.50;69.00;;;;;;5034184;28;20483;-70
2022/06/22 00:34:32;;;;;;;6.30;3.60;;;21.40;69.00;;;;;;5038717;28;20475;-69
2022/06/22 00:37:04;;;;;;;3.53;3.23;;;21.40;69.00;;;;;;5066376;28;20476;-70
2022/06/22 00:39:32;;;;;;;3.50;3.30;;;21.40;68.70;;;;;;5049153;28;20458;-70
2022/06/22 00:42:18;;;;;;;3.70;3.40;;;21.40;68.70;;;;;;5050422;28;20462;-69
2022/06/22 00:45:04;;;;;;;3.67;3.37;;;21.40;68.60;;;;;;5033746;28;20455;-70
2022/06/22 00:47:35;;;;;;;3.33;3.10;;;21.40;68.70;;;;;;5048539;28;20462;-69
2022/06/22 00:50:18;;;;;;;3.80;3.50;;;21.40;68.60;;;;;;5035175;28;20461;-69
2022/06/22 00:53:09;;;;;;;3.60;3.30;;;21.40;68.50;;;;;;5047708;28;20461;-69
2022/06/22 00:55:38;;;;;;;4.00;3.70;;;21.40;68.40;;;;;;5034025;28;20476;-70
2022/06/22 00:58:25;;;;;;;5.17;3.57;;;21.30;68.60;;;;;;5050374;28;20537;-69
2022/06/22 01:01:32;;;;;;;4.17;3.80;;;21.30;68.70;;;;;;5041033;28;20447;-70
2022/06/22 01:04:12;;;;;;;3.20;3.00;;;21.30;69.50;;;;;;5036969;28;20446;-69
2022/06/22 01:07:16;;;;;;;3.30;3.10;;;21.20;69.40;;;;;;5042783;28;20494;-70
2022/06/22 01:10:08;;;;;;;3.70;3.40;;;21.20;68.60;;;;;;5039368;28;20480;-70
2022/06/22 01:12:43;;;;;;;3.00;2.80;;;21.20;68.40;;;;;;5046686;28;20988;-69
2022/06/22 01:15:12;;;;;;;3.40;3.10;;;21.20;68.40;;;;;;5040619;28;20462;-70
2022/06/22 01:17:55;;;;;;;3.80;3.27;;;21.20;68.40;;;;;;5050823;28;20453;-69
2022/06/22 01:20:35;;;;;;;3.20;3.00;;;21.10;68.30;;;;;;5041118;28;20978;-70
2022/06/22 01:23:37;;;;;;;3.63;3.33;;;21.10;68.30;;;;;;5051713;28;20513;-70
2022/06/22 01:26:30;;;;;;;3.50;3.10;;;21.10;68.30;;;;;;5008341;28;20532;-70
2022/06/22 01:29:06;;;;;;;3.40;3.10;;;21.10;68.30;;;;;;5041841;28;20467;-69
2022/06/22 01:31:34;;;;;;;3.70;3.43;;;21.00;68.20;;;;;;5044635;28;20446;-69
2022/06/22 01:34:02;;;;;;;4.73;3.47;;;21.00;68.20;;;;;;5050462;28;20541;-69
2022/06/22 01:36:30;;;;;;;4.00;3.60;;;21.00;68.30;;;;;;5050141;28;20450;-69
2022/06/22 01:38:57;;;;;;;3.37;3.10;;;20.80;68.60;;;;;;5033917;28;20458;-69
2022/06/22 01:41:45;;;;;;;3.27;2.97;;;20.70;69.00;;;;;;5046637;28;20535;-69
2022/06/22 01:44:19;;;;;;;4.07;3.70;;;20.70;69.30;;;;;;5042979;28;20458;-69
2022/06/22 01:47:14;;;;;;;3.20;3.00;;;20.70;69.60;;;;;;5041628;28;20550;-70
2022/06/22 01:49:52;;;;;;;3.43;3.13;;;20.80;69.70;;;;;;5047167;28;20464;-69
2022/06/22 01:52:48;;;;;;;4.47;3.53;;;20.60;69.00;;;;;;5032544;28;20508;-70
2022/06/22 01:55:21;;;;;;;3.27;3.00;;;20.50;69.50;;;;;;5045129;28;20439;-70
2022/06/22 01:57:56;;;;;;;3.30;3.00;;;20.50;69.50;;;;;;5041611;28;20450;-69
2022/06/22 02:00:24;;;;;;;4.63;3.40;;;20.50;69.50;;;;;;5049829;28;20454;-68
2022/06/22 02:03:11;;;;;;;2.87;2.70;;;20.50;69.30;;;;;;5050342;28;20447;-69
2022/06/22 02:05:40;;;;;;;3.63;3.30;;;20.50;69.20;;;;;;5049817;28;20466;-69
2022/06/22 02:08:08;;;;;;;4.07;3.50;;;20.50;69.30;;;;;;5034091;28;20520;-69
2022/06/22 02:11:03;;;;;;;3.00;2.80;;;20.50;69.20;;;;;;5046360;28;20454;-69
2022/06/22 02:13:38;;;;;;;5.13;3.50;;;20.50;69.40;;;;;;5042172;28;20528;-69
2022/06/22 02:16:37;;;;;;;2.83;2.63;;;20.50;69.50;;;;;;5046573;28;20520;-70
2022/06/22 02:19:03;;;;;;;3.00;2.80;;;20.50;69.30;;;;;;5048552;28;20465;-69
2022/06/22 02:21:41;;;;;;;3.53;3.23;;;20.40;69.50;;;;;;5039998;28;20460;-69
2022/06/22 02:24:15;;;;;;;3.50;2.87;;;20.10;70.00;;;;;;5047048;28;20231;-69
2022/06/22 02:26:54;;;;;;;3.33;3.00;;;20.10;70.80;;;;;;5032305;28;21003;-70
2022/06/22 02:29:24;;;;;;;3.43;3.17;;;20.10;70.50;;;;;;5046009;28;20489;-69
2022/06/22 02:31:53;;;;;;;3.20;3.00;;;20.20;70.50;;;;;;5049409;28;20500;-70
2022/06/22 02:34:19;;;;;;;3.17;2.97;;;20.20;70.30;;;;;;5055424;28;20497;-70
2022/06/22 02:36:48;;;;;;;3.40;3.10;;;20.10;70.10;;;;;;5044835;28;20458;-70
2022/06/22 02:39:17;;;;;;;3.10;2.90;;;20.10;70.20;;;;;;5050649;28;20476;-70
2022/06/22 02:44:34;;;;;;;3.00;2.80;;;19.90;70.60;;;;;;5045926;28;20458;-70
2022/06/22 02:47:29;;;;;;;3.73;3.30;;;19.90;70.80;;;;;;5045571;28;20471;-70
2022/06/22 02:50:13;;;;;;;2.60;2.50;;;20.00;70.40;;;;;;5036500;28;20550;-69
2022/06/22 02:52:51;;;;;;;2.93;2.73;;;20.00;70.10;;;;;;5044538;28;20454;-69
2022/06/22 02:55:23;;;;;;;3.23;3.03;;;20.00;70.30;;;;;;5045550;28;20500;-70
2022/06/22 02:57:48;;;;;;;3.60;3.30;;;20.00;70.20;;;;;;5047765;28;20467;-69
2022/06/22 03:00:16;;;;;;;3.40;3.10;;;20.00;70.20;;;;;;5040613;28;20456;-70
2022/06/22 03:02:43;;;;;;;3.40;3.10;;;20.00;70.30;;;;;;5031039;28;20673;-69
2022/06/22 03:05:12;;;;;;;3.27;3.00;;;20.00;70.50;;;;;;5032319;28;20512;-70
2022/06/22 03:07:43;;;;;;;3.60;3.30;;;19.80;70.70;;;;;;5047998;28;20454;-69
2022/06/22 03:10:36;;;;;;;3.07;2.87;;;19.70;71.20;;;;;;5032544;28;20478;-69
2022/06/22 03:13:02;;;;;;;3.30;3.10;;;19.70;71.00;;;;;;5041052;28;20456;-69
2022/06/22 03:15:32;;;;;;;3.33;3.13;;;19.80;71.10;;;;;;5041429;28;20450;-70
2022/06/22 03:17:59;;;;;;;2.90;2.70;;;19.80;71.00;;;;;;5048995;28;20837;-70
2022/06/22 03:20:29;;;;;;;3.10;2.90;;;19.80;71.10;;;;;;5038837;28;20459;-68
2022/06/22 03:22:59;;;;;;;6.13;3.27;;;19.80;70.90;;;;;;5042628;28;20488;-69
2022/06/22 03:25:42;;;;;;;3.17;2.90;;;19.60;71.20;;;;;;5048107;28;20528;-69
2022/06/22 03:28:16;;;;;;;3.50;3.20;;;19.50;71.30;;;;;;5048694;28;20469;-69
2022/06/22 03:30:54;;;;;;;5.30;3.40;;;19.60;71.60;;;;;;5049920;28;20954;-69
2022/06/22 03:33:29;;;;;;;3.03;2.83;;;19.60;71.30;;;;;;5048720;28;20454;-70
2022/06/22 03:36:00;;;;;;;3.30;3.00;;;19.60;71.90;;;;;;5030241;28;20469;-69
2022/06/22 03:38:38;;;;;;;3.20;2.90;;;19.40;72.50;;;;;;5041043;28;20447;-69
2022/06/22 03:41:13;;;;;;;4.07;3.30;;;19.40;72.00;;;;;;5041327;28;21330;-69
2022/06/22 03:43:49;;;;;;;4.30;3.27;;;19.50;71.90;;;;;;5040552;28;20490;-69
2022/06/22 03:46:24;;;;;;;3.20;2.87;;;19.50;71.80;;;;;;5045529;28;20470;-69
2022/06/22 03:49:04;;;;;;;2.70;2.50;;;19.60;71.80;;;;;;5043489;28;20455;-70
2022/06/22 03:51:49;;;;;;;3.20;2.93;;;19.50;72.00;;;;;;5047784;28;20450;-69
2022/06/22 03:54:25;;;;;;;3.13;2.93;;;19.40;72.10;;;;;;5046413;28;20465;-69
2022/06/22 03:56:55;;;;;;;3.60;3.30;;;19.50;72.10;;;;;;5028428;28;20867;-69
2022/06/22 03:59:22;;;;;;;3.10;2.80;;;19.50;71.90;;;;;;5046641;28;20515;-68
2022/06/22 04:01:48;;;;;;;3.53;3.23;;;19.50;71.80;;;;;;5032189;28;20541;-69
2022/06/22 04:04:14;;;;;;;3.27;2.97;;;19.60;71.90;;;;;;5032234;28;20466;-69
2022/06/22 04:06:49;;;;;;;2.73;2.63;;;19.50;71.50;;;;;;5044305;28;20475;-69
2022/06/22 04:09:21;;;;;;;3.53;3.23;;;19.50;71.70;;;;;;5039231;28;20227;-69
2022/06/22 04:12:03;;;;;;;3.63;2.93;;;19.50;71.80;;;;;;5051806;28;20450;-69
2022/06/22 04:14:32;;;;;;;2.97;2.63;;;19.50;72.10;;;;;;5044518;28;20557;-68
2022/06/22 04:17:05;;;;;;;7.30;3.53;;;19.50;71.90;;;;;;5043383;28;20525;-68
2022/06/22 04:19:42;;;;;;;2.87;2.70;;;19.50;71.90;;;;;;5050628;28;20547;-69
2022/06/22 04:22:15;;;;;;;3.20;3.00;;;19.50;72.30;;;;;;5054065;28;20458;-69
2022/06/22 04:24:57;;;;;;;3.70;3.40;;;19.50;71.80;;;;;;5044364;28;20473;-69
2022/06/22 04:27:33;;;;;;;3.27;3.00;;;19.50;72.00;;;;;;5029626;28;20494;-69
2022/06/22 04:30:07;;;;;;;3.63;3.23;;;19.50;72.10;;;;;;5037218;28;20513;-69
2022/06/22 04:32:38;;;;;;;3.03;2.83;;;19.50;72.40;;;;;;5041051;28;20512;-69
2022/06/22 04:35:25;;;;;;;3.50;3.20;;;19.50;72.80;;;;;;5033520;28;20829;-69
2022/06/22 04:37:57;;;;;;;3.57;3.27;;;19.50;72.70;;;;;;5046431;28;20486;-69
2022/06/22 04:40:31;;;;;;;3.30;3.10;;;19.50;72.50;;;;;;5043707;28;20948;-69
2022/06/22 04:43:03;;;;;;;3.93;3.53;;;19.50;72.90;;;;;;5053149;28;20441;-69
2022/06/22 04:45:32;;;;;;;5.80;3.33;;;19.50;73.10;;;;;;5034507;28;21002;-69
2022/06/22 04:48:11;;;;;;;3.60;3.30;;;19.50;73.80;;;;;;5044565;28;20454;-69
2022/06/22 04:50:40;;;;;;;6.90;3.27;;;19.50;73.60;;;;;;5044173;28;20866;-70
2022/06/22 04:53:33;;;;;;;4.40;4.00;;;19.50;73.30;;;;;;5035034;28;20461;-69
2022/06/22 04:56:03;;;;;;;3.50;3.30;;;19.50;73.30;;;;;;5027891;28;20486;-69
2022/06/22 04:58:42;;;;;;;5.93;3.97;;;19.50;73.60;;;;;;5048784;28;20831;-68
2022/06/22 05:01:17;;;;;;;3.53;3.27;;;19.50;73.90;;;;;;5045956;28;20442;-69
2022/06/22 05:03:43;;;;;;;3.60;3.30;;;19.40;74.50;;;;;;5046664;28;20442;-69
2022/06/22 05:06:18;;;;;;;3.60;3.33;;;19.50;74.60;;;;;;5040135;28;20851;-69
2022/06/22 05:08:52;;;;;;;3.77;3.53;;;19.40;74.50;;;;;;5050212;28;20553;-69
2022/06/22 05:11:20;;;;;;;6.13;3.17;;;19.50;75.00;;;;;;5047101;28;20466;-70
2022/06/22 05:13:52;;;;;;;4.20;3.27;;;19.40;75.50;;;;;;5031313;28;20612;-70
2022/06/22 05:16:25;;;;;;;5.80;3.40;;;19.40;75.10;;;;;;5049616;28;20470;-69
2022/06/22 05:18:52;;;;;;;3.67;3.37;;;19.50;75.70;;;;;;5045812;28;20464;-69
2022/06/22 05:21:33;;;;;;;3.43;3.13;;;19.50;75.70;;;;;;5050283;28;20537;-70
2022/06/22 05:24:15;;;;;;;3.60;3.40;;;19.40;76.40;;;;;;5038479;28;20466;-69
2022/06/22 05:26:42;;;;;;;3.83;3.40;;;19.50;75.70;;;;;;5038459;28;20478;-70
2022/06/22 05:29:16;;;;;;;3.43;3.13;;;19.50;75.60;;;;;;5032034;28;20450;-70
2022/06/22 05:31:54;;;;;;;3.27;2.97;;;19.50;75.80;;;;;;5018923;28;20457;-69
2022/06/22 05:34:27;;;;;;;3.50;3.17;;;19.50;75.50;;;;;;5041647;28;20501;-70
2022/06/22 05:37:07;;;;;;;3.37;3.07;;;19.50;76.40;;;;;;5043423;28;20462;-69
2022/06/22 05:39:35;;;;;;;4.20;3.80;;;19.60;76.50;;;;;;5043387;28;20446;-69
2022/06/22 05:42:01;;;;;;;3.50;3.30;;;19.60;77.20;;;;;;5042217;28;20447;-70
2022/06/22 05:44:28;;;;;;;3.80;3.27;;;19.60;76.30;;;;;;5029701;28;20469;-70
2022/06/22 05:46:57;;;;;;;3.50;3.20;;;19.60;76.30;;;;;;5039994;28;20817;-69
2022/06/22 05:49:29;;;;;;;3.50;3.07;;;19.60;76.00;;;;;;5041743;28;20454;-67
2022/06/22 05:52:16;;;;;;;3.53;3.23;;;19.60;76.10;;;;;;5048611;28;20459;-70
2022/06/22 05:54:54;;;;;;;4.10;3.50;;;19.70;76.10;;;;;;5040921;28;20513;-70
2022/06/22 05:57:29;;;;;;;3.33;2.83;;;19.70;76.40;;;;;;5038386;28;20813;-68
2022/06/22 06:00:00;;;;;;;4.07;3.47;;;19.70;76.10;;;;;;5037368;28;20961;-70
2022/06/22 06:02:55;;;;;;;2.87;2.70;;;19.70;76.50;;;;;;5044469;28;20451;-70
2022/06/22 06:05:45;;;;;;;3.30;3.10;;;19.70;76.30;;;;;;5028080;28;20467;-69
2022/06/22 06:08:25;;;;;;;5.93;3.20;;;19.80;76.30;;;;;;5042901;28;21032;-69
2022/06/22 06:10:52;;;;;;;5.33;2.80;;;19.80;76.60;;;;;;5027348;28;20443;-69
2022/06/22 06:13:29;;;;;;;3.70;3.40;;;19.90;77.40;;;;;;5030261;28;21006;-70
2022/06/22 06:15:57;;;;;;;4.50;3.40;;;19.90;77.20;;;;;;5038644;28;20453;-70
2022/06/22 06:18:28;;;;;;;3.40;3.10;;;19.90;77.50;;;;;;5022244;28;20466;-69
2022/06/22 06:21:01;;;;;;;3.93;3.57;;;20.00;78.40;;;;;;5041069;28;20881;-70
2022/06/22 06:23:42;;;;;;;3.50;3.20;;;20.00;78.80;;;;;;5043380;28;20455;-70
2022/06/22 06:29:17;;;;;;;3.30;3.10;;;20.20;79.20;;;;;;5043563;28;20538;-70
2022/06/22 06:32:15;;;;;;;3.23;3.00;;;20.20;78.60;;;;;;5045982;28;20466;-70
2022/06/22 06:34:46;;;;;;;3.73;3.33;;;20.30;78.70;;;;;;5033272;28;20526;-70
2022/06/22 06:37:21;;;;;;;3.40;3.10;;;20.30;79.40;;;;;;5025374;28;21003;-69
2022/06/22 06:39:52;;;;;;;3.50;3.00;;;20.40;80.20;;;;;;5040533;28;20450;-70
2022/06/22 06:42:23;;;;;;;3.50;3.20;;;20.50;79.60;;;;;;5039289;28;20456;-69
2022/06/22 06:44:51;;;;;;;2.90;2.70;;;20.50;79.40;;;;;;5046202;28;20451;-69
2022/06/22 06:47:38;;;;;;;3.40;3.17;;;20.60;78.80;;;;;;5020990;28;20826;-70
2022/06/22 06:50:18;;;;;;;3.13;2.93;;;20.60;78.10;;;;;;5041988;28;20966;-69
2022/06/22 06:53:02;;;;;;;3.30;3.00;;;20.60;77.40;;;;;;5041369;28;20462;-70
2022/06/22 06:55:39;;;;;;;6.40;3.00;;;20.60;76.90;;;;;;5038054;28;20443;-70
2022/06/22 06:58:21;;;;;;;4.20;3.57;;;20.70;77.40;;;;;;5042322;28;20458;-70
2022/06/22 07:00:47;;;;;;;2.97;2.70;;;20.80;78.00;;;;;;5044157;28;20445;-69
2022/06/22 07:03:24;;;;;;;3.43;3.13;;;20.90;78.40;;;;;;5036836;28;20980;-69
2022/06/22 07:05:51;;;;;;;2.83;2.53;;;21.00;78.10;;;;;;5044618;28;20496;-70
2022/06/22 07:08:20;;;;;;;4.07;2.90;;;21.10;78.10;;;;;;5040842;28;20505;-70
2022/06/22 07:11:18;;;;;;;6.37;2.97;;;21.30;78.10;;;;;;5039213;28;20512;-70
2022/06/22 07:13:43;;;;;;;2.70;2.53;;;21.40;77.70;;;;;;5030583;28;20514;-70
2022/06/22 07:16:14;;;;;;;3.50;2.80;;;21.50;76.60;;;;;;5041201;28;20450;-70
2022/06/22 07:18:49;;;;;;;3.20;2.90;;;21.60;76.60;;;;;;5037315;28;20243;-70
2022/06/22 07:21:17;;;;;;;2.77;2.57;;;21.70;76.40;;;;;;5044389;28;20453;-70
2022/06/22 07:23:55;;;;;;;3.37;3.07;;;21.80;76.00;;;;;;5041949;28;20476;-70
2022/06/22 07:26:38;;;;;;;4.50;2.50;;;21.90;76.00;;;;;;5035467;28;20467;-69
2022/06/22 07:29:27;;;;;;;2.40;2.30;;;22.00;75.50;;;;;;5037929;28;21056;-69
2022/06/22 07:32:27;;;;;;;3.20;2.90;;;22.00;75.00;;;;;;5043076;28;20454;-69
2022/06/22 07:35:20;;;;;;;2.40;2.30;;;22.10;74.60;;;;;;5044483;28;20537;-70
2022/06/22 07:38:18;;;;;;;2.83;2.40;;;22.20;74.90;;;;;;5035658;28;20470;-70
2022/06/22 07:41:28;;;;;;;2.67;2.47;;;22.30;74.80;;;;;;5022923;28;20879;-70
2022/06/22 07:43:34;;;;;;;4.10;2.70;;;22.40;74.60;;;;;;5039139;28;20458;-69
2022/06/22 07:46:00;;;;;;;2.60;2.40;;;22.50;74.70;;;;;;5038803;28;20512;-70
2022/06/22 07:48:28;;;;;;;3.07;2.87;;;22.60;74.50;;;;;;5027884;28;20485;-69
2022/06/22 07:50:56;;;;;;;2.83;2.63;;;22.70;74.30;;;;;;5043951;28;20459;-70
2022/06/22 07:53:34;;;;;;;2.93;2.73;;;22.80;74.10;;;;;;5035451;28;20462;-70
2022/06/22 07:56:10;;;;;;;3.50;3.30;;;22.90;74.50;;;;;;5040511;28;20466;-70
2022/06/22 07:58:45;;;;;;;2.93;2.73;;;23.10;74.60;;;;;;5042117;28;20476;-70
2022/06/22 08:01:15;;;;;;;2.80;2.60;;;23.10;74.80;;;;;;5031032;28;20447;-69
2022/06/22 08:03:57;;;;;;;3.03;2.83;;;23.20;73.80;;;;;;5038881;28;20453;-70
2022/06/22 08:06:57;;;;;;;9.03;3.27;;;23.30;73.10;;;;;;5037675;28;20482;-71
2022/06/22 08:09:37;;;;;;;2.97;2.77;;;23.30;73.40;;;;;;5032765;28;20501;-69
2022/06/22 08:12:20;;;;;;;3.70;3.10;;;23.50;74.10;;;;;;5037671;28;20454;-70
2022/06/22 08:14:49;;;;;;;3.17;2.97;;;23.60;73.80;;;;;;5037937;28;21076;-70
2022/06/22 08:17:26;;;;;;;3.93;2.70;;;23.80;73.90;;;;;;5039689;28;20457;-71
2022/06/22 08:19:52;;;;;;;3.10;2.80;;;23.90;73.10;;;;;;5038907;28;20472;-71
2022/06/22 08:22:18;;;;;;;3.23;2.90;;;24.00;72.30;;;;;;5037457;28;20470;-71
2022/06/22 08:24:50;;;;;;;3.10;2.83;;;24.10;72.30;;;;;;5026771;28;20504;-70
2022/06/22 08:27:19;;;;;;;3.00;2.77;;;24.20;71.00;;;;;;5040617;28;20219;-70
2022/06/22 08:29:47;;;;;;;3.70;2.80;;;24.30;71.50;;;;;;5044675;28;20548;-70
2022/06/22 08:32:35;;;;;;;3.07;2.70;;;24.40;71.50;;;;;;5031352;28;20465;-70
2022/06/22 08:35:17;;;;;;;2.80;2.60;;;24.50;71.40;;;;;;5036526;28;20474;-70
2022/06/22 08:37:49;;;;;;;3.30;2.80;;;24.50;71.00;;;;;;5034274;28;20466;-70
2022/06/22 08:40:31;;;;;;;4.83;2.70;;;24.60;70.60;;;;;;5037123;28;20445;-70
2022/06/22 08:43:25;;;;;;;3.27;3.00;;;24.80;70.40;;;;;;5036058;28;20464;-71
2022/06/22 08:45:57;;;;;;;2.37;2.17;;;24.80;69.40;;;;;;5035062;28;20819;-70
2022/06/22 08:48:51;;;;;;;3.10;2.90;;;24.80;69.30;;;;;;5031160;28;20489;-71
2022/06/22 08:51:50;;;;;;;2.90;2.70;;;24.90;68.90;;;;;;5039951;28;20821;-71
2022/06/22 08:54:49;;;;;;;2.93;2.73;;;24.90;68.60;;;;;;5027436;28;20755;-70
2022/06/22 08:57:51;;;;;;;2.80;2.53;;;25.00;68.10;;;;;;5044183;28;20476;-70
2022/06/22 09:00:19;;;;;;;5.80;3.90;;;25.10;68.20;;;;;;5040937;28;20474;-70
2022/06/22 09:03:04;;;;;;;3.50;2.80;;;25.20;68.10;;;;;;5038662;28;20456;-71
2022/06/22 09:06:06;;;;;;;2.87;2.70;;;25.30;68.30;;;;;;5041945;28;20457;-70
2022/06/22 09:09:10;;;;;;;2.77;2.53;;;25.30;67.20;;;;;;5028949;28;20501;-69
2022/06/22 09:11:54;;;;;;;4.53;2.43;;;25.40;67.40;;;;;;5038705;28;20536;-71
2022/06/22 09:14:39;;;;;;;2.33;2.13;;;25.30;66.20;;;;;;5039498;28;20459;-70
2022/06/22 09:17:19;;;;;;;3.80;2.37;;;25.50;66.70;;;;;;5043977;28;20458;-69
2022/06/22 09:20:10;;;;;;;3.80;2.70;;;25.50;66.70;;;;;;5044598;28;20482;-71
2022/06/22 09:22:55;;;;;;;3.50;3.20;;;25.60;66.60;;;;;;5042507;28;20452;-70
2022/06/22 09:25:27;;;;;;;7.43;4.60;;;25.70;66.50;;;;;;5042564;28;20537;-70
2022/06/22 09:27:58;;;;;;;6.60;3.60;;;25.70;65.50;;;;;;5048906;28;20468;-70
2022/06/22 09:30:45;;;;;;;5.40;3.47;;;25.80;65.70;;;;;;5037372;28;20478;-70
2022/06/22 09:33:32;;;;;;;2.93;2.63;;;25.80;64.70;;;;;;5044064;28;20467;-69
2022/06/22 09:36:30;;;;;;;3.10;2.70;;;25.90;63.80;;;;;;5037260;28;20446;-68
2022/06/22 09:39:17;;;;;;;3.20;2.70;;;26.00;64.10;;;;;;5043599;28;20450;-70
2022/06/22 09:41:57;;;;;;;2.70;2.50;;;26.00;63.70;;;;;;5042098;28;20439;-71
2022/06/22 09:44:49;;;;;;;3.57;2.63;;;26.10;63.50;;;;;;5044356;28;20458;-71
2022/06/22 09:47:23;;;;;;;6.37;3.00;;;26.00;62.70;;;;;;5039876;28;20475;-71
2022/06/22 09:50:02;;;;;;;3.40;3.20;;;26.00;63.40;;;;;;5056431;28;20485;-71
2022/06/22 09:52:37;;;;;;;2.70;2.50;;;26.10;63.10;;;;;;5041751;28;20996;-70
2022/06/22 09:58:29;;;;;;;3.00;2.70;;;26.20;62.50;;;;;;5032976;28;20488;-71
2022/06/22 10:01:21;;;;;;;3.30;2.57;;;26.20;62.50;;;;;;5036829;28;20466;-71
2022/06/22 10:04:18;;;;;;;2.80;2.60;;;26.20;62.50;;;;;;5038066;28;20501;-71
2022/06/22 10:06:52;;;;;;;4.80;2.60;;;26.10;60.80;;;;;;5043543;28;20470;-71
2022/06/22 10:09:24;;;;;;;2.60;2.50;;;26.20;61.30;;;;;;5038897;28;20470;-70
2022/06/22 10:12:03;;;;;;;3.10;2.90;;;26.30;60.80;;;;;;5036728;28;20494;-70
2022/06/22 10:14:53;;;;;;;3.07;2.60;;;26.40;60.30;;;;;;5041745;28;20497;-71
2022/06/22 10:17:37;;;;;;;12.03;3.70;;;26.50;60.00;;;;;;5024991;28;20502;-71
2022/06/22 10:20:50;;;;;;;8.23;7.53;;;26.50;58.90;;;;;;5020964;28;20468;-69
2022/06/22 10:24:00;;;;;;;6.97;6.27;;;26.60;59.40;;;;;;5027478;28;20542;-71
2022/06/22 10:26:52;;;;;;;7.20;6.63;;;26.80;59.50;;;;;;4994621;28;20471;-71
2022/06/22 10:29:43;;;;;;;6.37;5.87;;;27.00;59.20;;;;;;4959302;28;20879;-70
2022/06/22 10:32:27;;;;;;;4.40;4.10;;;27.10;59.40;;;;;;5010402;28;20533;-71
2022/06/22 10:34:52;;;;;;;3.57;3.27;;;27.10;58.90;;;;;;5054190;28;20252;-70
2022/06/22 10:37:33;;;;;;;4.03;3.73;;;27.10;58.70;;;;;;5036146;28;20467;-71
2022/06/22 10:46:59;;;;;;;4.30;2.83;;;27.50;58.90;;;;;;5022478;28;20505;-70
2022/06/22 10:49:42;;;;;;;2.87;2.67;;;27.60;59.10;;;;;;5049623;28;20215;-68
2022/06/22 10:52:29;;;;;;;2.70;2.60;;;27.70;58.90;;;;;;5040426;28;20479;-70
2022/06/22 10:55:37;;;;;;;3.83;2.80;;;27.70;58.60;;;;;;5035739;28;20241;-70
2022/06/22 10:58:32;;;;;;;3.08;2.88;;;27.70;59.10;;;;;;5040406;28;20599;-70
2022/06/22 11:00:58;;;;;;;4.87;2.80;;;27.80;59.00;;;;;;5019331;28;20244;-70
2022/06/22 11:03:42;;;;;;;4.10;3.80;;;27.80;58.90;;;;;;5042965;28;20216;-71
2022/06/22 11:06:29;;;;;;;5.13;3.20;;;28.10;58.90;;;;;;5042434;28;20230;-70
2022/06/22 11:09:43;;;;;;;3.50;3.15;;;28.20;58.10;;;;;;5027901;28;20362;-71
2022/06/22 11:12:22;;;;;;;3.30;3.10;;;28.30;58.30;;;;;;5025791;28;20262;-70
2022/06/22 11:15:21;;;;;;;3.17;2.97;;;28.30;58.40;;;;;;5022502;28;20223;-71
2022/06/22 11:18:19;;;;;;;2.95;2.75;;;28.40;58.20;;;;;;5011623;28;20713;-71
2022/06/22 11:20:50;;;;;;;3.05;2.72;;;28.50;58.00;;;;;;5032237;28;20221;-71
2022/06/22 11:23:29;;;;;;;2.95;2.75;;;28.60;57.30;;;;;;5043743;28;20298;-70
2022/06/22 11:32:18;;;;;;;3.10;2.90;;;28.90;55.90;;;;;;5036042;28;20212;-71
2022/06/22 11:34:45;;;;;;;3.00;2.80;;;29.00;56.10;;;;;;5039452;28;20251;-71
2022/06/22 11:38:08;;;;;;;3.05;2.95;;;29.10;55.40;;;;;;5044325;28;20651;-70
2022/06/22 11:40:45;;;;;;;3.10;2.90;;;29.10;55.20;;;;;;4963800;28;20270;-71
2022/06/22 11:43:28;;;;;;;3.30;2.97;;;29.10;55.60;;;;;;4952178;28;20235;-71
2022/06/22 11:46:07;;;;;;;2.63;2.53;;;29.20;55.30;;;;;;5032838;28;20695;-71
2022/06/22 11:48:48;;;;;;;3.42;3.22;;;29.20;55.40;;;;;;5041462;28;20307;-70
2022/06/22 11:51:51;;;;;;;3.10;2.90;;;29.20;55.50;;;;;;5051668;28;20237;-71
2022/06/22 11:54:22;;;;;;;3.33;3.13;;;29.20;55.40;;;;;;5029088;28;20221;-71
2022/06/22 11:56:59;;;;;;;3.20;3.00;;;29.20;55.70;;;;;;5054900;28;20228;-71
2022/06/22 11:59:42;;;;;;;3.20;3.00;;;29.30;55.30;;;;;;5038305;28;20217;-68
2022/06/22 12:02:13;;;;;;;3.20;2.95;;;29.30;55.50;;;;;;5023406;28;20225;-70
2022/06/22 12:05:13;;;;;;;4.47;4.07;;;29.30;55.70;;;;;;5025484;28;20593;-70
2022/06/22 12:08:04;;;;;;;3.30;2.67;;;29.40;55.10;;;;;;5039131;28;20229;-71
2022/06/22 12:11:06;;;;;;;3.53;2.80;;;29.40;54.50;;;;;;5043024;28;20242;-71
2022/06/22 12:16:52;;;;;;;2.42;2.22;;;29.30;54.80;;;;;;5023770;28;20293;-70
2022/06/22 12:19:18;;;;;;;4.22;3.70;;;29.30;54.70;;;;;;5050651;28;20263;-71
2022/06/22 12:22:11;;;;;;;4.03;3.60;;;29.30;54.00;;;;;;5044780;28;20223;-70
2022/06/22 12:24:54;;;;;;;3.38;3.00;;;29.40;53.90;;;;;;5030816;28;20219;-70
2022/06/22 12:27:29;;;;;;;3.58;3.28;;;29.40;53.50;;;;;;5037819;28;20266;-69
2022/06/22 12:30:37;;;;;;;4.93;3.20;;;29.40;53.70;;;;;;5031226;28;20233;-71
2022/06/22 12:33:06;;;;;;;3.08;2.88;;;29.50;53.80;;;;;;5045370;28;20627;-69
2022/06/22 12:35:36;;;;;;;4.30;2.72;;;29.50;54.10;;;;;;5051461;28;20225;-70
2022/06/22 12:38:20;;;;;;;3.17;2.97;;;29.50;54.20;;;;;;5030359;28;20233;-70
2022/06/22 12:40:58;;;;;;;2.85;2.75;;;29.50;54.50;;;;;;5045126;28;20418;-70
2022/06/22 12:43:30;;;;;;;3.90;2.90;;;29.60;54.60;;;;;;5030362;28;20222;-70
2022/06/22 12:46:18;;;;;;;8.30;3.83;;;29.60;54.60;;;;;;5046522;28;20323;-71
2022/06/22 12:49:07;;;;;;;3.33;3.03;;;29.60;54.90;;;;;;5041734;28;20238;-71
2022/06/22 12:51:51;;;;;;;3.90;3.60;;;29.70;54.70;;;;;;5031678;28;20319;-70
2022/06/22 12:54:34;;;;;;;3.92;3.60;;;29.70;54.80;;;;;;5042160;28;20233;-70
2022/06/22 12:57:08;;;;;;;4.07;3.75;;;29.80;55.10;;;;;;5040479;28;20256;-70
2022/06/22 12:59:39;;;;;;;3.50;3.30;;;29.90;54.90;;;;;;5043414;28;20224;-70
2022/06/22 13:02:11;;;;;;;3.47;3.17;;;29.90;55.00;;;;;;5045056;28;20313;-71
2022/06/22 13:04:37;;;;;;;3.53;3.28;;;30.00;55.00;;;;;;5048611;28;20581;-71
2022/06/22 13:07:06;;;;;;;5.22;3.50;;;30.00;54.60;;;;;;5044985;28;20243;-70
2022/06/22 13:09:33;;;;;;;3.42;3.10;;;29.90;54.60;;;;;;5046812;28;20221;-70
2022/06/22 13:12:03;;;;;;;4.38;3.63;;;30.00;54.60;;;;;;5027805;28;20225;-71
2022/06/22 13:14:40;;;;;;;3.72;3.42;;;30.00;54.70;;;;;;5046307;28;20220;-71
2022/06/22 13:17:15;;;;;;;3.92;3.63;;;30.00;54.60;;;;;;5035483;28;20233;-69
2022/06/22 13:20:02;;;;;;;3.25;3.05;;;29.90;54.50;;;;;;5042447;28;20294;-71
2022/06/22 13:22:52;;;;;;;4.07;3.67;;;29.90;54.60;;;;;;5036231;28;20232;-71
2022/06/22 13:25:42;;;;;;;3.47;3.17;;;30.10;54.70;;;;;;5044229;28;20718;-71
2022/06/22 13:28:33;;;;;;;3.70;3.45;;;30.10;54.60;;;;;;5044136;28;20313;-71
2022/06/22 13:31:08;;;;;;;3.90;3.60;;;30.00;54.30;;;;;;5048012;28;20325;-71
2022/06/22 13:33:45;;;;;;;4.35;4.03;;;30.00;54.50;;;;;;5026822;28;20299;-70
2022/06/22 13:36:36;;;;;;;8.15;4.00;;;30.10;54.50;;;;;;5041191;28;20290;-69
2022/06/22 13:39:21;;;;;;;3.58;3.38;;;30.10;54.60;;;;;;5031195;28;20225;-69
2022/06/22 13:42:06;;;;;;;3.78;3.47;;;30.10;54.60;;;;;;5043140;28;20333;-70
2022/06/22 13:44:50;;;;;;;3.50;3.30;;;30.10;54.70;;;;;;5043261;28;20329;-69
2022/06/22 13:47:50;;;;;;;3.58;3.38;;;30.10;54.10;;;;;;5035668;28;20246;-71
2022/06/22 13:50:32;;;;;;;4.07;3.78;;;30.20;54.40;;;;;;5040948;28;20721;-71
2022/06/22 13:53:21;;;;;;;3.80;3.35;;;30.20;53.70;;;;;;5041573;28;20235;-70
2022/06/22 13:55:56;;;;;;;3.97;3.67;;;30.20;53.80;;;;;;5040912;28;20307;-71
2022/06/22 13:58:29;;;;;;;4.07;3.75;;;30.30;53.80;;;;;;5039204;28;20689;-71
2022/06/22 14:01:04;;;;;;;3.70;3.40;;;30.20;53.80;;;;;;5038259;28;20238;-71
2022/06/22 14:03:59;;;;;;;4.00;3.70;;;30.20;53.80;;;;;;5041796;28;20243;-70
2022/06/22 14:06:30;;;;;;;4.22;3.88;;;30.20;53.50;;;;;;5039363;28;20257;-71
2022/06/22 14:09:01;;;;;;;4.50;4.10;;;30.20;53.80;;;;;;5040681;28;20229;-70
2022/06/22 14:11:50;;;;;;;5.43;5.03;;;30.20;53.80;;;;;;5037750;28;20221;-69
2022/06/22 14:14:36;;;;;;;4.88;4.45;;;30.20;54.30;;;;;;5040075;28;20712;-71